createdAt,value
2019-05-07T00:01:07.288Z,99.90
2019-05-07T00:03:42.114Z,99.90
2019-05-07T00:06:15.956Z,99.90
2019-05-07T00:08:48.789Z,99.90
2019-05-07T00:11:22.419Z,99.90
2019-05-07T00:13:56.089Z,99.90
2019-05-07T00:16:29.137Z,99.90
2019-05-07T00:19:02.498Z,99.90
2019-05-07T00:21:35.730Z,99.90
2019-05-07T00:24:08.790Z,99.90
2019-05-07T00:26:43.022Z,99.90
2019-05-07T00:29:16.776Z,99.90
2019-05-07T00:31:51.913Z,99.90
2019-05-07T00:34:26.537Z,99.90
2019-05-07T00:37:02.196Z,99.90
2019-05-07T00:39:42.406Z,99.90
2019-05-07T00:42:21.455Z,99.90
2019-05-07T00:44:56.336Z,99.90
2019-05-07T00:47:29.369Z,99.90
2019-05-07T00:50:06.909Z,99.90
2019-05-07T00:52:39.789Z,99.90
2019-05-07T00:55:13.071Z,99.90
2019-05-07T00:57:46.188Z,99.90
2019-05-07T01:00:19.070Z,99.90
2019-05-07T01:02:52.646Z,99.90
2019-05-07T01:05:26.289Z,99.90
2019-05-07T01:08:02.614Z,99.90
2019-05-07T01:10:37.310Z,99.90
2019-05-07T01:13:12.016Z,99.90
2019-05-07T01:15:44.929Z,99.90
2019-05-07T01:18:17.849Z,99.90
2019-05-07T01:20:53.061Z,99.90
2019-05-07T01:23:25.597Z,99.90
2019-05-07T01:25:58.649Z,99.90
2019-05-07T01:28:33.509Z,99.90
2019-05-07T01:31:06.857Z,99.90
2019-05-07T01:33:47.369Z,99.90
2019-05-07T01:36:22.627Z,99.90
2019-05-07T01:38:55.909Z,99.90
2019-05-07T01:41:29.277Z,99.90
2019-05-07T01:44:02.329Z,99.90
2019-05-07T01:46:35.183Z,99.90
2019-05-07T01:49:08.309Z,99.90
2019-05-07T01:51:42.266Z,99.90
2019-05-07T01:54:15.589Z,99.90
2019-05-07T01:56:48.637Z,99.90
2019-05-07T01:59:22.502Z,99.90
2019-05-07T02:01:57.397Z,99.90
2019-05-07T02:04:37.809Z,99.90
2019-05-07T02:07:14.889Z,99.90
2019-05-07T02:09:51.779Z,99.90
2019-05-07T02:12:25.590Z,99.90
2019-05-07T02:14:58.489Z,99.90
2019-05-07T02:17:32.163Z,99.90
2019-05-07T02:20:05.369Z,99.90
2019-05-07T02:22:38.237Z,99.90
2019-05-07T02:25:12.695Z,99.90
2019-05-07T02:27:45.918Z,99.90
2019-05-07T02:30:19.250Z,99.90
2019-05-07T02:32:53.934Z,99.90
2019-05-07T02:35:27.074Z,99.90
2019-05-07T02:38:16.769Z,99.90
2019-05-07T02:40:57.719Z,99.90
2019-05-07T02:43:33.485Z,99.90
2019-05-07T02:46:26.468Z,99.90
2019-05-07T02:48:53.709Z,99.90
2019-05-07T02:51:33.573Z,99.90
2019-05-07T02:54:08.773Z,99.90
2019-05-07T02:56:43.199Z,99.90
2019-05-07T02:59:16.721Z,99.90
2019-05-07T03:01:49.692Z,99.90
2019-05-07T03:04:25.017Z,99.90
2019-05-07T03:06:57.342Z,99.90
2019-05-07T03:09:32.839Z,99.90
2019-05-07T03:12:05.332Z,99.90
2019-05-07T03:14:38.870Z,99.90
2019-05-07T03:17:13.311Z,99.90
2019-05-07T03:19:48.475Z,99.90
2019-05-07T03:22:23.236Z,99.90
2019-05-07T03:24:57.470Z,99.90
2019-05-07T03:27:33.783Z,99.90
2019-05-07T03:30:26.045Z,99.90
2019-05-07T03:33:06.996Z,99.90
2019-05-07T03:35:46.196Z,99.90
2019-05-07T03:38:16.435Z,99.90
2019-05-07T03:40:52.960Z,99.90
2019-05-07T03:43:25.671Z,99.90
2019-05-07T03:46:03.293Z,99.90
2019-05-07T03:48:36.479Z,99.90
2019-05-07T03:51:12.952Z,99.90
2019-05-07T03:53:44.925Z,99.90
2019-05-07T03:56:17.859Z,99.90
2019-05-07T03:58:52.902Z,99.90
2019-05-07T04:01:25.357Z,99.90
2019-05-07T04:03:58.238Z,99.90
2019-05-07T04:06:33.177Z,99.90
2019-05-07T04:09:05.896Z,99.90
2019-05-07T04:11:39.000Z,99.90
2019-05-07T04:14:13.680Z,99.90
2019-05-07T04:16:46.869Z,99.90
2019-05-07T04:19:19.882Z,99.90
2019-05-07T04:21:53.530Z,99.90
2019-05-07T04:24:42.962Z,99.90
2019-05-07T04:27:23.804Z,99.90
2019-05-07T04:29:57.651Z,99.90
2019-05-07T04:32:33.462Z,99.90
2019-05-07T04:35:08.238Z,99.90
2019-05-07T04:37:42.792Z,99.90
2019-05-07T04:40:15.918Z,99.90
2019-05-07T04:42:48.898Z,99.90
2019-05-07T04:45:23.111Z,99.90
2019-05-07T04:47:56.398Z,99.90
2019-05-07T04:50:39.377Z,99.90
2019-05-07T04:53:05.790Z,99.90
2019-05-07T04:55:38.720Z,99.90
2019-05-07T04:58:14.019Z,99.90
2019-05-07T05:00:46.332Z,99.90
2019-05-07T05:03:24.257Z,99.90
2019-05-07T05:05:57.469Z,99.90
2019-05-07T05:08:32.565Z,99.90
2019-05-07T05:11:04.892Z,99.90
2019-05-07T05:13:37.761Z,99.90
2019-05-07T05:16:27.352Z,99.90
2019-05-07T05:19:02.378Z,99.90
2019-05-07T05:21:52.909Z,99.90
2019-05-07T05:24:27.717Z,99.90
2019-05-07T05:27:02.463Z,99.90
2019-05-07T05:29:36.869Z,99.90
2019-05-07T05:32:11.909Z,99.90
2019-05-07T05:34:44.468Z,99.90
2019-05-07T05:37:17.648Z,99.90
2019-05-07T05:40:04.878Z,99.90
2019-05-07T05:42:33.954Z,99.90
2019-05-07T05:45:08.466Z,99.90
2019-05-07T05:47:44.829Z,99.90
2019-05-07T05:50:16.577Z,99.90
2019-05-07T05:52:52.029Z,99.90
2019-05-07T05:55:26.388Z,99.90
2019-05-07T05:58:02.683Z,99.90
2019-05-07T06:00:53.314Z,99.90
2019-05-07T06:03:43.952Z,99.90
2019-05-07T06:06:34.549Z,99.90
2019-05-07T06:09:12.314Z,99.90
2019-05-07T06:11:47.188Z,99.90
2019-05-07T06:14:24.197Z,99.90
2019-05-07T06:17:12.921Z,99.90
2019-05-07T06:19:51.770Z,99.90
2019-05-07T06:22:42.475Z,99.90
2019-05-07T06:25:19.690Z,99.90
2019-05-07T06:27:52.692Z,99.90
2019-05-07T06:30:25.609Z,99.90
2019-05-07T06:32:58.658Z,98.50
2019-05-07T06:35:32.467Z,99.90
2019-05-07T06:38:07.151Z,98.50
2019-05-07T06:40:43.377Z,99.90
2019-05-07T06:43:16.093Z,99.80
2019-05-07T06:45:56.676Z,99.90
2019-05-07T06:48:38.882Z,99.90
2019-05-07T06:51:04.316Z,99.90
2019-05-07T06:53:37.157Z,99.90
2019-05-07T06:56:12.053Z,99.90
2019-05-07T06:58:46.132Z,99.90
2019-05-07T07:01:36.730Z,99.90
2019-05-07T07:04:14.069Z,99.90
2019-05-07T07:06:46.671Z,99.90
2019-05-07T07:09:36.430Z,99.40
2019-05-07T07:12:12.880Z,99.90
2019-05-07T07:14:46.029Z,98.30
2019-05-07T07:17:19.030Z,98.80
2019-05-07T07:19:52.419Z,99.30
2019-05-07T07:22:25.758Z,97.70
2019-05-07T07:24:58.769Z,98.80
2019-05-07T07:27:32.322Z,98.20
2019-05-07T07:30:21.822Z,97.70
2019-05-07T07:32:56.509Z,99.30
2019-05-07T07:35:29.590Z,97.70
2019-05-07T07:38:04.370Z,98.60
2019-05-07T07:40:38.870Z,98.20
2019-05-07T07:43:12.882Z,97.10
2019-05-07T07:45:46.291Z,97.20
2019-05-07T07:48:19.221Z,98.50
2019-05-07T07:50:52.477Z,97.40
2019-05-07T07:53:25.798Z,98.50
2019-05-07T07:56:16.350Z,99.10
2019-05-07T07:58:53.929Z,96.60
2019-05-07T08:01:36.430Z,94.20
2019-05-07T08:04:12.251Z,96.20
2019-05-07T08:06:46.437Z,95.40
2019-05-07T08:09:19.450Z,94.10
2019-05-07T08:11:52.709Z,94.90
2019-05-07T08:14:25.881Z,95.30
2019-05-07T08:17:02.101Z,96.00
2019-05-07T08:19:34.686Z,93.60
2019-05-07T08:22:07.489Z,92.90
2019-05-07T08:24:42.387Z,94.20
2019-05-07T08:27:15.583Z,92.70
2019-05-07T08:29:48.809Z,92.60
2019-05-07T08:32:39.475Z,92.40
2019-05-07T08:35:14.280Z,90.40
2019-05-07T08:37:47.613Z,89.60
2019-05-07T08:40:22.097Z,87.30
2019-05-07T08:42:56.649Z,88.40
2019-05-07T08:45:47.249Z,86.40
2019-05-07T08:48:21.736Z,82.20
2019-05-07T08:50:54.691Z,90.00
2019-05-07T08:53:27.571Z,88.00
2019-05-07T08:56:03.070Z,85.00
2019-05-07T08:58:35.249Z,89.10
2019-05-07T09:01:08.749Z,87.70
2019-05-07T09:03:44.670Z,90.10
2019-05-07T09:06:19.289Z,83.20
2019-05-07T09:08:52.790Z,81.00
2019-05-07T09:11:26.390Z,85.60
2019-05-07T09:13:59.356Z,90.10
2019-05-07T09:16:32.489Z,84.00
2019-05-07T09:19:05.549Z,85.00
2019-05-07T09:21:38.749Z,84.10
2019-05-07T09:24:12.332Z,82.80
2019-05-07T09:27:02.818Z,74.70
2019-05-07T09:29:37.648Z,77.80
2019-05-07T09:32:15.106Z,78.60
2019-05-07T09:34:51.914Z,80.70
2019-05-07T09:37:26.829Z,74.30
2019-05-07T09:39:59.689Z,75.40
2019-05-07T09:42:33.332Z,77.80
2019-05-07T09:45:06.937Z,81.00
2019-05-07T09:47:41.814Z,78.80
2019-05-07T09:50:14.428Z,78.70
2019-05-07T09:52:47.789Z,82.90
2019-05-07T09:55:23.305Z,77.90
2019-05-07T09:57:56.009Z,78.40
2019-05-07T10:00:29.189Z,82.60
2019-05-07T10:03:02.529Z,83.30
2019-05-07T10:05:35.517Z,78.10
2019-05-07T10:08:08.618Z,78.10
2019-05-07T10:10:42.297Z,73.50
2019-05-07T10:13:36.849Z,77.80
2019-05-07T10:16:09.918Z,74.30
2019-05-07T10:18:43.249Z,79.20
2019-05-07T10:21:16.285Z,75.80
2019-05-07T10:23:49.789Z,77.40
2019-05-07T10:26:23.509Z,76.10
2019-05-07T10:28:56.989Z,76.10
2019-05-07T10:31:32.039Z,76.50
2019-05-07T10:34:04.529Z,75.80
2019-05-07T10:42:42.995Z,78.50
2019-05-07T10:45:21.910Z,73.80
2019-05-07T10:48:15.054Z,79.10
2019-05-07T10:50:51.620Z,78.30
2019-05-07T10:53:25.080Z,82.50
2019-05-07T10:55:58.029Z,77.30
2019-05-07T10:58:32.004Z,79.40
2019-05-07T11:01:05.870Z,77.60
2019-05-07T11:03:38.808Z,80.90
2019-05-07T11:06:12.034Z,73.20
2019-05-07T11:08:45.808Z,78.20
2019-05-07T11:11:18.909Z,69.20
2019-05-07T11:13:55.857Z,72.50
2019-05-07T11:16:28.648Z,72.40
2019-05-07T11:19:02.088Z,75.20
2019-05-07T11:21:35.608Z,69.30
2019-05-07T11:24:08.709Z,71.60
2019-05-07T11:26:42.116Z,71.90
2019-05-07T11:29:15.149Z,71.70
2019-05-07T11:31:48.649Z,72.50
2019-05-07T11:34:22.329Z,74.30
2019-05-07T11:36:55.457Z,72.20
2019-05-07T11:39:28.409Z,68.50
2019-05-07T11:42:18.049Z,71.60
2019-05-07T11:44:54.986Z,73.60
2019-05-07T11:47:32.089Z,70.50
2019-05-07T11:50:14.793Z,65.20
2019-05-07T11:52:51.775Z,71.30
2019-05-07T11:55:25.271Z,68.30
2019-05-07T11:57:58.613Z,68.40
2019-05-07T12:00:33.468Z,67.30
2019-05-07T12:03:06.410Z,67.00
2019-05-07T12:05:39.449Z,68.30
2019-05-07T12:08:13.239Z,69.30
2019-05-07T12:10:47.208Z,68.70
2019-05-07T12:13:21.822Z,71.00
2019-05-07T12:15:54.849Z,69.00
2019-05-07T12:18:27.789Z,70.80
2019-05-07T12:21:03.723Z,70.50
2019-05-07T12:23:35.948Z,69.90
2019-05-07T12:26:08.829Z,69.00
2019-05-07T12:28:41.963Z,68.60
2019-05-07T12:31:16.939Z,65.60
2019-05-07T12:33:52.164Z,58.30
2019-05-07T12:36:25.389Z,61.30
2019-05-07T12:38:58.229Z,65.10
2019-05-07T12:41:33.743Z,63.30
2019-05-07T12:44:06.938Z,60.00
2019-05-07T12:46:42.100Z,59.60
2019-05-07T12:49:14.231Z,63.70
2019-05-07T12:51:48.747Z,65.90
2019-05-07T12:54:23.212Z,64.90
2019-05-07T12:56:56.027Z,63.80
2019-05-07T12:59:29.589Z,65.50
2019-05-07T13:02:17.977Z,66.80
2019-05-07T13:04:38.970Z,71.30
2019-05-07T13:07:23.531Z,65.50
2019-05-07T13:09:57.070Z,64.40
2019-05-07T13:12:32.063Z,66.60
2019-05-07T13:15:04.550Z,66.30
2019-05-07T13:17:37.571Z,63.80
2019-05-07T13:20:12.129Z,64.50
2019-05-07T13:22:45.370Z,62.10
2019-05-07T13:25:18.397Z,65.50
2019-05-07T13:27:52.176Z,64.90
2019-05-07T13:30:26.100Z,67.50
2019-05-07T13:32:59.429Z,62.40
2019-05-07T13:35:32.350Z,65.50
2019-05-07T13:38:04.828Z,64.10
2019-05-07T13:40:37.796Z,64.80
2019-05-07T13:43:23.015Z,61.10
2019-05-07T13:46:03.901Z,68.90
2019-05-07T13:48:38.628Z,66.70
2019-05-07T13:51:12.284Z,68.00
2019-05-07T13:53:45.849Z,61.20
2019-05-07T13:56:19.468Z,62.50
2019-05-07T13:58:52.448Z,62.10
2019-05-07T14:01:42.128Z,66.50
2019-05-07T14:04:15.168Z,67.30
2019-05-07T14:06:48.308Z,66.40
2019-05-07T14:09:24.351Z,67.50
2019-05-07T14:11:58.229Z,66.10
2019-05-07T14:14:34.193Z,68.20
2019-05-07T14:17:05.988Z,64.60
2019-05-07T14:19:39.510Z,66.60
2019-05-07T14:22:18.366Z,70.70
2019-05-07T14:24:47.968Z,67.80
2019-05-07T14:27:20.869Z,67.80
2019-05-07T14:29:53.989Z,67.00
2019-05-07T14:32:45.096Z,69.70
2019-05-07T14:35:19.677Z,65.20
2019-05-07T14:37:54.609Z,63.00
2019-05-07T14:40:27.509Z,65.00
2019-05-07T14:43:05.609Z,62.60
2019-05-07T14:45:41.968Z,66.70
2019-05-07T14:48:14.690Z,67.80
2019-05-07T14:50:47.708Z,63.10
2019-05-07T14:53:22.346Z,66.90
2019-05-07T14:55:55.450Z,70.50
2019-05-07T14:58:28.475Z,69.90
2019-05-07T15:01:02.432Z,65.90
2019-05-07T15:03:35.969Z,69.10
2019-05-07T15:06:08.909Z,69.30
2019-05-07T15:08:45.008Z,67.30
2019-05-07T15:11:19.029Z,65.40
2019-05-07T15:13:52.268Z,68.00
2019-05-07T15:16:25.768Z,69.30
2019-05-07T15:18:59.109Z,69.00
2019-05-07T15:21:32.469Z,68.80
2019-05-07T15:24:06.251Z,68.70
2019-05-07T15:26:39.110Z,71.20
2019-05-07T15:29:13.854Z,70.20
2019-05-07T15:32:03.528Z,67.10
2019-05-07T15:34:36.651Z,69.90
2019-05-07T15:37:11.896Z,69.60
2019-05-07T15:39:44.931Z,66.80
2019-05-07T15:42:17.851Z,68.10
2019-05-07T15:44:52.756Z,67.60
2019-05-07T15:47:33.691Z,67.60
2019-05-07T15:50:06.553Z,70.10
2019-05-07T15:52:57.676Z,73.40
2019-05-07T15:55:22.433Z,72.20
2019-05-07T15:57:55.771Z,70.30
2019-05-07T16:00:30.350Z,73.60
2019-05-07T16:03:03.235Z,74.00
2019-05-07T16:05:36.510Z,70.90
2019-05-07T16:08:12.342Z,70.70
2019-05-07T16:10:46.038Z,71.00
2019-05-07T16:13:22.366Z,73.20
2019-05-07T16:15:55.531Z,72.20
2019-05-07T16:18:33.249Z,71.60
2019-05-07T16:21:06.311Z,72.60
2019-05-07T16:23:39.750Z,72.20
2019-05-07T16:26:13.109Z,74.00
2019-05-07T16:28:46.008Z,75.00
2019-05-07T16:31:19.089Z,74.30
2019-05-07T16:33:52.849Z,76.10
2019-05-07T16:36:26.029Z,77.90
2019-05-07T16:38:58.989Z,75.70
2019-05-07T16:41:32.500Z,79.10
2019-05-07T16:44:05.870Z,80.40
2019-05-07T16:46:38.969Z,80.30
2019-05-07T16:49:12.323Z,80.00
2019-05-07T16:51:45.209Z,80.40
2019-05-07T16:54:18.230Z,82.30
2019-05-07T16:57:12.061Z,79.60
2019-05-07T16:59:45.197Z,81.40
2019-05-07T17:02:29.070Z,77.90
2019-05-07T17:05:09.677Z,82.20
2019-05-07T17:07:44.270Z,83.10
2019-05-07T17:10:17.249Z,84.10
2019-05-07T17:12:52.420Z,83.10
2019-05-07T17:15:26.009Z,82.40
2019-05-07T17:18:02.795Z,85.40
2019-05-07T17:20:36.169Z,84.40
2019-05-07T17:23:09.118Z,84.90
2019-05-07T17:25:42.796Z,86.10
2019-05-07T17:28:16.716Z,86.60
2019-05-07T17:30:49.869Z,87.10
2019-05-07T17:33:23.127Z,88.20
2019-05-07T17:35:56.430Z,87.40
2019-05-07T17:38:29.269Z,89.90
2019-05-07T17:41:12.911Z,90.40
2019-05-07T17:43:36.957Z,90.60
2019-05-07T17:46:12.140Z,89.60
2019-05-07T17:48:44.830Z,88.90
2019-05-07T17:51:17.479Z,89.90
2019-05-07T17:53:59.725Z,90.40
2019-05-07T17:56:25.434Z,91.30
2019-05-07T17:58:58.249Z,90.30
2019-05-07T18:01:32.825Z,90.10
2019-05-07T18:04:05.661Z,90.60
2019-05-07T18:06:38.431Z,88.60
2019-05-07T18:09:12.192Z,87.20
2019-05-07T18:11:45.308Z,89.00
2019-05-07T18:14:18.191Z,91.10
2019-05-07T18:16:56.942Z,89.60
2019-05-07T18:19:33.115Z,89.10
2019-05-07T18:22:06.069Z,89.20
2019-05-07T18:24:39.009Z,90.00
2019-05-07T18:27:13.582Z,90.80
2019-05-07T18:29:46.490Z,91.00
2019-05-07T18:32:21.747Z,90.90
2019-05-07T18:34:54.073Z,91.50
2019-05-07T18:37:27.037Z,92.30
2019-05-07T18:40:02.366Z,92.10
2019-05-07T18:42:34.811Z,92.70
2019-05-07T18:45:07.731Z,93.50
2019-05-07T18:47:40.748Z,93.60
2019-05-07T18:50:13.699Z,93.30
2019-05-07T18:52:46.991Z,94.00
2019-05-07T18:55:19.944Z,93.60
2019-05-07T18:57:52.718Z,93.60
2019-05-07T19:00:33.137Z,94.60
2019-05-07T19:03:05.914Z,93.90
2019-05-07T19:05:38.953Z,94.50
2019-05-07T19:08:12.572Z,95.50
2019-05-07T19:10:45.748Z,95.60
2019-05-07T19:13:18.654Z,94.70
2019-05-07T19:15:52.986Z,94.80
2019-05-07T19:18:26.012Z,95.80
2019-05-07T19:20:59.634Z,96.70
2019-05-07T19:23:33.074Z,96.50
2019-05-07T19:26:06.372Z,96.90
2019-05-07T19:28:39.212Z,96.80
2019-05-07T19:31:12.631Z,96.90
2019-05-07T19:33:45.831Z,97.60
2019-05-07T19:36:18.892Z,98.30
2019-05-07T19:38:52.567Z,99.20
2019-05-07T19:41:25.991Z,99.40
2019-05-07T19:43:59.332Z,99.90
2019-05-07T19:46:32.691Z,99.90
2019-05-07T19:49:07.239Z,99.90
2019-05-07T19:51:42.675Z,99.90
2019-05-07T19:54:15.050Z,99.90
2019-05-07T19:56:47.847Z,99.90
2019-05-07T19:59:22.248Z,99.90
2019-05-07T20:01:57.111Z,99.90
2019-05-07T20:04:31.993Z,99.90
2019-05-07T20:07:04.670Z,99.90
2019-05-07T20:09:39.291Z,99.90
2019-05-07T20:12:14.649Z,99.90
2019-05-07T20:14:47.517Z,99.90
2019-05-07T20:17:22.079Z,99.90
2019-05-07T20:19:56.036Z,99.90
2019-05-07T20:22:29.429Z,99.90
2019-05-07T20:25:15.768Z,99.90
2019-05-07T20:27:38.796Z,99.90
2019-05-07T20:30:12.258Z,99.90
2019-05-07T20:32:46.094Z,99.90
2019-05-07T20:35:19.369Z,99.90
2019-05-07T20:37:52.309Z,99.90
2019-05-07T20:40:25.696Z,99.90
2019-05-07T20:42:59.309Z,99.90
2019-05-07T20:45:32.207Z,99.90
2019-05-07T20:48:06.089Z,99.90
2019-05-07T20:50:39.349Z,99.90
2019-05-07T20:53:12.271Z,99.90
2019-05-07T20:55:49.573Z,99.90
2019-05-07T20:58:22.469Z,99.90
2019-05-07T21:00:55.637Z,99.90
2019-05-07T21:03:28.901Z,99.90
2019-05-07T21:06:02.317Z,99.90
2019-05-07T21:08:35.790Z,99.90
2019-05-07T21:11:08.728Z,99.90
2019-05-07T21:13:44.255Z,99.90
2019-05-07T21:16:16.828Z,99.90
2019-05-07T21:18:49.670Z,99.90
2019-05-07T21:21:22.629Z,99.90
2019-05-07T21:23:55.620Z,99.90
2019-05-07T21:26:28.797Z,99.90
2019-05-07T21:29:02.974Z,99.90
2019-05-07T21:31:36.293Z,99.90
2019-05-07T21:34:09.189Z,99.90
2019-05-07T21:36:43.168Z,99.90
2019-05-07T21:39:16.949Z,99.90
2019-05-07T21:41:51.977Z,99.90
2019-05-07T21:44:25.313Z,99.90
2019-05-07T21:46:59.191Z,99.90
2019-05-07T21:49:32.356Z,99.90
2019-05-07T21:52:05.770Z,99.90
2019-05-07T21:54:43.647Z,99.90
2019-05-07T21:57:28.169Z,99.90
2019-05-07T22:00:17.549Z,99.90
2019-05-07T22:02:53.349Z,99.90
2019-05-07T22:05:26.173Z,99.90
2019-05-07T22:07:59.188Z,99.90
2019-05-07T22:10:33.042Z,99.90
2019-05-07T22:13:06.429Z,99.90
2019-05-07T22:15:39.549Z,99.90
2019-05-07T22:18:12.630Z,99.90
2019-05-07T22:20:45.789Z,99.90
2019-05-07T22:23:18.709Z,99.90
2019-05-07T22:25:51.753Z,99.90
2019-05-07T22:28:25.516Z,99.90
2019-05-07T22:31:05.953Z,99.90
2019-05-07T22:33:46.729Z,99.90
2019-05-07T22:36:22.016Z,99.90
2019-05-07T22:38:54.709Z,99.90
2019-05-07T22:41:27.751Z,99.90
2019-05-07T22:44:02.553Z,99.90
2019-05-07T22:46:35.576Z,99.90
2019-05-07T22:49:08.381Z,99.90
2019-05-07T22:51:41.329Z,99.90
2019-05-07T22:54:14.209Z,99.90
2019-05-07T22:57:06.782Z,99.90
2019-05-07T22:59:39.760Z,99.90
2019-05-07T23:02:12.688Z,99.90
2019-05-07T23:04:45.798Z,99.90
2019-05-07T23:07:18.707Z,99.90
2019-05-07T23:09:52.243Z,99.90
2019-05-07T23:12:25.428Z,99.90
2019-05-07T23:14:58.548Z,99.90
2019-05-07T23:17:32.637Z,99.90
2019-05-07T23:20:06.064Z,99.90
2019-05-07T23:22:39.007Z,99.90
2019-05-07T23:25:11.920Z,99.90
2019-05-07T23:27:44.888Z,99.90
2019-05-07T23:30:17.707Z,99.90
2019-05-07T23:32:52.278Z,99.90
2019-05-07T23:35:25.403Z,99.90
2019-05-07T23:37:58.567Z,99.90
2019-05-07T23:40:46.147Z,99.90
2019-05-07T23:43:22.594Z,99.90
2019-05-07T23:45:55.367Z,99.90
2019-05-07T23:48:28.367Z,99.90
2019-05-07T23:51:02.102Z,99.90
2019-05-07T23:53:35.560Z,99.90
2019-05-07T23:56:08.389Z,99.90
2019-05-07T23:58:41.951Z,99.90
